sensor_id;sensor_type;location;lat;lon;timestamp;P1;durP1;ratioP1;P2;durP2;ratioP2
30872;SDS011;17579;42.690;2.586;2024-03-23T00:56:39;9.40;;;3.47;;
30872;SDS011;17579;42.690;2.586;2024-03-23T00:59:13;12.98;;;3.40;;
30872;SDS011;17579;42.690;2.586;2024-03-23T01:01:43;11.55;;;4.43;;
30872;SDS011;17579;42.690;2.586;2024-03-23T01:04:09;8.95;;;3.70;;
30872;SDS011;17579;42.690;2.586;2024-03-23T01:06:35;12.38;;;4.28;;
30872;SDS011;17579;42.690;2.586;2024-03-23T01:09:18;8.82;;;3.72;;
30872;SDS011;17579;42.690;2.586;2024-03-23T01:11:54;13.40;;;3.60;;
30872;SDS011;17579;42.690;2.586;2024-03-23T01:14:40;10.18;;;3.78;;
30872;SDS011;17579;42.690;2.586;2024-03-23T01:17:06;14.82;;;3.95;;
30872;SDS011;17579;42.690;2.586;2024-03-23T01:19:31;12.40;;;3.78;;
30872;SDS011;17579;42.690;2.586;2024-03-23T01:21:57;9.80;;;3.83;;
30872;SDS011;17579;42.690;2.586;2024-03-23T01:24:25;10.02;;;4.15;;
30872;SDS011;17579;42.690;2.586;2024-03-23T01:26:57;12.13;;;4.53;;
30872;SDS011;17579;42.690;2.586;2024-03-23T01:29:31;7.72;;;3.67;;
30872;SDS011;17579;42.690;2.586;2024-03-23T01:32:12;11.85;;;4.28;;
30872;SDS011;17579;42.690;2.586;2024-03-23T01:34:44;10.48;;;3.78;;
30872;SDS011;17579;42.690;2.586;2024-03-23T01:37:15;11.32;;;4.13;;
30872;SDS011;17579;42.690;2.586;2024-03-23T01:39:53;11.48;;;3.83;;
30872;SDS011;17579;42.690;2.586;2024-03-23T01:42:20;9.65;;;3.33;;
30872;SDS011;17579;42.690;2.586;2024-03-23T01:44:45;8.73;;;3.78;;
30872;SDS011;17579;42.690;2.586;2024-03-23T01:47:14;10.15;;;4.00;;
30872;SDS011;17579;42.690;2.586;2024-03-23T01:50:09;7.25;;;3.60;;
30872;SDS011;17579;42.690;2.586;2024-03-23T01:52:53;10.68;;;4.35;;
30872;SDS011;17579;42.690;2.586;2024-03-23T01:55:48;11.52;;;4.10;;
30872;SDS011;17579;42.690;2.586;2024-03-23T01:58:16;14.55;;;4.80;;
30872;SDS011;17579;42.690;2.586;2024-03-23T02:00:44;11.00;;;3.83;;
30872;SDS011;17579;42.690;2.586;2024-03-23T02:03:31;11.90;;;4.22;;
30872;SDS011;17579;42.690;2.586;2024-03-23T02:05:59;8.27;;;4.43;;
30872;SDS011;17579;42.690;2.586;2024-03-23T02:08:29;11.00;;;4.40;;
30872;SDS011;17579;42.690;2.586;2024-03-23T02:11:05;9.73;;;4.35;;
30872;SDS011;17579;42.690;2.586;2024-03-23T02:13:45;14.13;;;5.05;;
30872;SDS011;17579;42.690;2.586;2024-03-23T02:16:21;13.50;;;5.95;;
30872;SDS011;17579;42.690;2.586;2024-03-23T02:18:47;11.15;;;5.15;;
30872;SDS011;17579;42.690;2.586;2024-03-23T02:21:13;14.68;;;5.35;;
30872;SDS011;17579;42.690;2.586;2024-03-23T02:23:56;9.85;;;5.13;;
30872;SDS011;17579;42.690;2.586;2024-03-23T02:26:21;9.55;;;5.30;;
30872;SDS011;17579;42.690;2.586;2024-03-23T02:28:47;8.60;;;5.18;;
30872;SDS011;17579;42.690;2.586;2024-03-23T02:31:12;11.82;;;5.97;;
30872;SDS011;17579;42.690;2.586;2024-03-23T02:33:44;9.57;;;6.25;;
30872;SDS011;17579;42.690;2.586;2024-03-23T02:36:10;10.20;;;5.40;;
30872;SDS011;17579;42.690;2.586;2024-03-23T02:38:35;10.48;;;5.25;;
30872;SDS011;17579;42.690;2.586;2024-03-23T02:41:07;12.45;;;6.28;;
30872;SDS011;17579;42.690;2.586;2024-03-23T02:43:32;9.63;;;6.10;;
30872;SDS011;17579;42.690;2.586;2024-03-23T02:46:07;9.77;;;5.95;;
30872;SDS011;17579;42.690;2.586;2024-03-23T02:48:32;7.65;;;5.35;;
30872;SDS011;17579;42.690;2.586;2024-03-23T02:50:58;8.65;;;5.53;;
30872;SDS011;17579;42.690;2.586;2024-03-23T02:53:24;13.05;;;5.50;;
30872;SDS011;17579;42.690;2.586;2024-03-23T02:56:01;4.95;;;4.45;;
30872;SDS011;17579;42.690;2.586;2024-03-23T02:58:34;6.60;;;4.97;;
30872;SDS011;17579;42.690;2.586;2024-03-23T03:01:11;10.18;;;5.22;;
30872;SDS011;17579;42.690;2.586;2024-03-23T03:03:40;6.88;;;4.78;;
30872;SDS011;17579;42.690;2.586;2024-03-23T03:06:08;6.07;;;4.63;;
30872;SDS011;17579;42.690;2.586;2024-03-23T03:08:34;4.68;;;4.20;;
30872;SDS011;17579;42.690;2.586;2024-03-23T03:10:59;7.60;;;4.38;;
30872;SDS011;17579;42.690;2.586;2024-03-23T03:13:25;5.88;;;3.95;;
30872;SDS011;17579;42.690;2.586;2024-03-23T03:16:00;6.72;;;4.05;;
30872;SDS011;17579;42.690;2.586;2024-03-23T03:18:34;5.38;;;3.70;;
30872;SDS011;17579;42.690;2.586;2024-03-23T03:21:03;7.72;;;3.80;;
30872;SDS011;17579;42.690;2.586;2024-03-23T03:23:38;5.55;;;4.13;;
30872;SDS011;17579;42.690;2.586;2024-03-23T03:26:04;5.22;;;3.65;;
30872;SDS011;17579;42.690;2.586;2024-03-23T03:28:33;7.00;;;3.95;;
30872;SDS011;17579;42.690;2.586;2024-03-23T03:30:58;6.25;;;3.60;;
30872;SDS011;17579;42.690;2.586;2024-03-23T03:33:27;7.85;;;3.05;;
30872;SDS011;17579;42.690;2.586;2024-03-23T03:36:11;5.43;;;3.50;;
30872;SDS011;17579;42.690;2.586;2024-03-23T03:38:38;4.90;;;2.90;;
30872;SDS011;17579;42.690;2.586;2024-03-23T03:41:15;7.43;;;2.90;;
30872;SDS011;17579;42.690;2.586;2024-03-23T03:43:51;6.00;;;3.30;;
30872;SDS011;17579;42.690;2.586;2024-03-23T03:46:16;11.73;;;3.63;;
30872;SDS011;17579;42.690;2.586;2024-03-23T03:48:55;4.75;;;3.05;;
30872;SDS011;17579;42.690;2.586;2024-03-23T03:51:33;9.38;;;3.10;;
30872;SDS011;17579;42.690;2.586;2024-03-23T03:54:06;4.38;;;3.28;;
30872;SDS011;17579;42.690;2.586;2024-03-23T03:56:35;5.82;;;3.20;;
30872;SDS011;17579;42.690;2.586;2024-03-23T03:59:00;3.38;;;2.92;;
30872;SDS011;17579;42.690;2.586;2024-03-23T04:01:28;5.07;;;3.25;;
30872;SDS011;17579;42.690;2.586;2024-03-23T04:03:57;5.97;;;3.13;;
30872;SDS011;17579;42.690;2.586;2024-03-23T04:06:22;5.07;;;3.35;;
30872;SDS011;17579;42.690;2.586;2024-03-23T04:08:55;7.40;;;3.67;;
30872;SDS011;17579;42.690;2.586;2024-03-23T04:11:44;5.60;;;3.63;;
30872;SDS011;17579;42.690;2.586;2024-03-23T04:14:09;5.45;;;3.65;;
30872;SDS011;17579;42.690;2.586;2024-03-23T04:16:35;9.90;;;3.88;;
30872;SDS011;17579;42.690;2.586;2024-03-23T04:19:01;10.88;;;3.85;;
30872;SDS011;17579;42.690;2.586;2024-03-23T04:21:29;6.53;;;3.83;;
30872;SDS011;17579;42.690;2.586;2024-03-23T04:24:01;3.92;;;3.53;;
30872;SDS011;17579;42.690;2.586;2024-03-23T04:26:26;6.43;;;3.50;;
30872;SDS011;17579;42.690;2.586;2024-03-23T04:28:53;7.00;;;3.83;;
30872;SDS011;17579;42.690;2.586;2024-03-23T04:31:18;7.30;;;3.25;;
30872;SDS011;17579;42.690;2.586;2024-03-23T04:33:47;6.45;;;3.45;;
30872;SDS011;17579;42.690;2.586;2024-03-23T04:36:19;5.30;;;3.40;;
30872;SDS011;17579;42.690;2.586;2024-03-23T04:38:46;5.80;;;3.20;;
30872;SDS011;17579;42.690;2.586;2024-03-23T04:41:15;4.55;;;2.88;;
30872;SDS011;17579;42.690;2.586;2024-03-23T04:43:42;3.63;;;3.10;;
30872;SDS011;17579;42.690;2.586;2024-03-23T04:46:31;5.72;;;2.95;;
30872;SDS011;17579;42.690;2.586;2024-03-23T04:49:04;4.70;;;2.10;;
30872;SDS011;17579;42.690;2.586;2024-03-23T04:51:42;3.22;;;2.55;;
30872;SDS011;17579;42.690;2.586;2024-03-23T04:54:11;3.45;;;2.10;;
30872;SDS011;17579;42.690;2.586;2024-03-23T04:56:43;4.63;;;2.63;;
30872;SDS011;17579;42.690;2.586;2024-03-23T04:59:16;4.82;;;2.08;;
30872;SDS011;17579;42.690;2.586;2024-03-23T05:01:47;4.10;;;1.90;;
30872;SDS011;17579;42.690;2.586;2024-03-23T05:04:15;2.03;;;1.65;;
30872;SDS011;17579;42.690;2.586;2024-03-23T05:07:01;1.45;;;1.35;;
30872;SDS011;17579;42.690;2.586;2024-03-23T05:09:48;1.98;;;1.83;;
30872;SDS011;17579;42.690;2.586;2024-03-23T05:12:16;2.60;;;1.50;;
30872;SDS011;17579;42.690;2.586;2024-03-23T05:14:41;1.95;;;1.42;;
30872;SDS011;17579;42.690;2.586;2024-03-23T05:17:09;2.85;;;1.45;;
30872;SDS011;17579;42.690;2.586;2024-03-23T05:19:44;1.30;;;1.20;;
30872;SDS011;17579;42.690;2.586;2024-03-23T05:22:10;1.10;;;1.02;;
30872;SDS011;17579;42.690;2.586;2024-03-23T05:24:38;1.20;;;1.02;;
30872;SDS011;17579;42.690;2.586;2024-03-23T05:27:07;3.17;;;1.13;;
30872;SDS011;17579;42.690;2.586;2024-03-23T05:29:32;0.90;;;0.90;;
30872;SDS011;17579;42.690;2.586;2024-03-23T05:32:03;2.13;;;1.23;;
30872;SDS011;17579;42.690;2.586;2024-03-23T05:34:45;1.55;;;1.02;;
30872;SDS011;17579;42.690;2.586;2024-03-23T05:37:22;0.77;;;0.60;;
30872;SDS011;17579;42.690;2.586;2024-03-23T05:39:58;0.70;;;0.70;;
30872;SDS011;17579;42.690;2.586;2024-03-23T05:42:37;2.00;;;0.80;;
30872;SDS011;17579;42.690;2.586;2024-03-23T05:45:08;0.70;;;0.70;;
30872;SDS011;17579;42.690;2.586;2024-03-23T05:47:33;1.17;;;1.05;;
30872;SDS011;17579;42.690;2.586;2024-03-23T05:50:05;0.80;;;0.80;;
30872;SDS011;17579;42.690;2.586;2024-03-23T05:52:39;1.52;;;0.80;;
30872;SDS011;17579;42.690;2.586;2024-03-23T05:55:05;1.40;;;1.10;;
30872;SDS011;17579;42.690;2.586;2024-03-23T05:57:31;2.60;;;1.20;;
30872;SDS011;17579;42.690;2.586;2024-03-23T05:59:59;1.00;;;1.00;;
30872;SDS011;17579;42.690;2.586;2024-03-23T06:02:25;3.10;;;1.30;;
30872;SDS011;17579;42.690;2.586;2024-03-23T06:05:05;1.42;;;1.33;;
30872;SDS011;17579;42.690;2.586;2024-03-23T06:07:30;2.17;;;1.85;;
30872;SDS011;17579;42.690;2.586;2024-03-23T06:09:56;2.58;;;1.90;;
30872;SDS011;17579;42.690;2.586;2024-03-23T06:12:28;5.07;;;2.60;;
30872;SDS011;17579;42.690;2.586;2024-03-23T06:15:20;5.85;;;3.30;;
30872;SDS011;17579;42.690;2.586;2024-03-23T06:17:48;5.38;;;3.53;;
30872;SDS011;17579;42.690;2.586;2024-03-23T06:20:16;5.25;;;4.43;;
30872;SDS011;17579;42.690;2.586;2024-03-23T06:22:41;5.72;;;4.10;;
30872;SDS011;17579;42.690;2.586;2024-03-23T06:25:48;5.95;;;4.88;;
30872;SDS011;17579;42.690;2.586;2024-03-23T06:28:13;6.28;;;4.65;;
30872;SDS011;17579;42.690;2.586;2024-03-23T06:30:45;4.00;;;3.47;;
30872;SDS011;17579;42.690;2.586;2024-03-23T06:33:13;5.68;;;3.67;;
30872;SDS011;17579;42.690;2.586;2024-03-23T06:35:55;5.00;;;3.33;;
30872;SDS011;17579;42.690;2.586;2024-03-23T06:38:31;5.55;;;3.20;;
30872;SDS011;17579;42.690;2.586;2024-03-23T06:40:57;3.50;;;2.70;;
30872;SDS011;17579;42.690;2.586;2024-03-23T06:43:23;5.55;;;2.70;;
30872;SDS011;17579;42.690;2.586;2024-03-23T06:45:55;2.92;;;2.28;;
30872;SDS011;17579;42.690;2.586;2024-03-23T06:48:29;3.58;;;1.98;;
30872;SDS011;17579;42.690;2.586;2024-03-23T06:50:55;1.92;;;1.70;;
30872;SDS011;17579;42.690;2.586;2024-03-23T06:53:25;2.00;;;1.42;;
30872;SDS011;17579;42.690;2.586;2024-03-23T06:55:51;2.25;;;1.73;;
30872;SDS011;17579;42.690;2.586;2024-03-23T06:58:21;4.60;;;1.70;;
30872;SDS011;17579;42.690;2.586;2024-03-23T07:00:47;2.40;;;1.42;;
30872;SDS011;17579;42.690;2.586;2024-03-23T07:03:18;2.08;;;1.40;;
30872;SDS011;17579;42.690;2.586;2024-03-23T07:05:47;3.28;;;1.50;;
30872;SDS011;17579;42.690;2.586;2024-03-23T07:08:13;4.72;;;1.70;;
30872;SDS011;17579;42.690;2.586;2024-03-23T07:10:51;1.70;;;1.60;;
30872;SDS011;17579;42.690;2.586;2024-03-23T07:13:25;2.22;;;1.63;;
30872;SDS011;17579;42.690;2.586;2024-03-23T07:15:54;1.60;;;1.50;;
30872;SDS011;17579;42.690;2.586;2024-03-23T07:18:23;2.70;;;1.70;;
30872;SDS011;17579;42.690;2.586;2024-03-23T07:21:04;2.22;;;1.77;;
30872;SDS011;17579;42.690;2.586;2024-03-23T07:23:33;3.17;;;1.90;;
30872;SDS011;17579;42.690;2.586;2024-03-23T07:26:12;3.00;;;1.80;;
30872;SDS011;17579;42.690;2.586;2024-03-23T07:28:42;2.10;;;1.40;;
30872;SDS011;17579;42.690;2.586;2024-03-23T07:31:22;1.90;;;1.40;;
30872;SDS011;17579;42.690;2.586;2024-03-23T07:33:58;3.17;;;1.33;;
30872;SDS011;17579;42.690;2.586;2024-03-23T07:36:33;1.77;;;1.20;;
30872;SDS011;17579;42.690;2.586;2024-03-23T07:38:58;1.33;;;1.13;;
30872;SDS011;17579;42.690;2.586;2024-03-23T07:41:36;1.30;;;1.20;;
30872;SDS011;17579;42.690;2.586;2024-03-23T07:44:08;2.00;;;1.17;;
30872;SDS011;17579;42.690;2.586;2024-03-23T07:46:37;1.45;;;1.35;;
30872;SDS011;17579;42.690;2.586;2024-03-23T07:49:17;1.58;;;1.13;;
30872;SDS011;17579;42.690;2.586;2024-03-23T07:52:01;1.55;;;1.23;;
30872;SDS011;17579;42.690;2.586;2024-03-23T07:54:26;1.35;;;1.10;;
30872;SDS011;17579;42.690;2.586;2024-03-23T07:57:05;1.27;;;1.00;;
30872;SDS011;17579;42.690;2.586;2024-03-23T07:59:38;1.17;;;1.08;;
30872;SDS011;17579;42.690;2.586;2024-03-23T08:02:06;1.15;;;1.00;;
30872;SDS011;17579;42.690;2.586;2024-03-23T08:04:37;1.60;;;0.95;;
30872;SDS011;17579;42.690;2.586;2024-03-23T08:07:03;1.00;;;0.90;;
30872;SDS011;17579;42.690;2.586;2024-03-23T08:09:37;1.83;;;0.90;;
30872;SDS011;17579;42.690;2.586;2024-03-23T08:12:05;1.75;;;0.77;;
30872;SDS011;17579;42.690;2.586;2024-03-23T08:14:47;1.60;;;0.88;;
30872;SDS011;17579;42.690;2.586;2024-03-23T08:17:13;1.33;;;0.80;;
30872;SDS011;17579;42.690;2.586;2024-03-23T08:19:42;2.33;;;0.80;;
30872;SDS011;17579;42.690;2.586;2024-03-23T08:22:21;0.77;;;0.77;;
30872;SDS011;17579;42.690;2.586;2024-03-23T08:25:05;1.17;;;0.70;;
30872;SDS011;17579;42.690;2.586;2024-03-23T08:27:34;1.45;;;0.80;;
30872;SDS011;17579;42.690;2.586;2024-03-23T08:30:16;1.70;;;1.00;;
30872;SDS011;17579;42.690;2.586;2024-03-23T08:32:45;1.35;;;1.00;;
30872;SDS011;17579;42.690;2.586;2024-03-23T08:35:11;2.47;;;1.02;;
30872;SDS011;17579;42.690;2.586;2024-03-23T08:37:39;1.80;;;1.00;;
30872;SDS011;17579;42.690;2.586;2024-03-23T08:40:05;1.40;;;0.95;;
30872;SDS011;17579;42.690;2.586;2024-03-23T08:42:40;1.58;;;0.98;;
30872;SDS011;17579;42.690;2.586;2024-03-23T08:45:08;0.90;;;0.70;;
30872;SDS011;17579;42.690;2.586;2024-03-23T08:47:39;2.80;;;1.17;;
30872;SDS011;17579;42.690;2.586;2024-03-23T08:50:15;3.15;;;0.98;;
30872;SDS011;17579;42.690;2.586;2024-03-23T08:52:43;1.33;;;1.00;;
30872;SDS011;17579;42.690;2.586;2024-03-23T08:55:18;1.50;;;0.90;;
30872;SDS011;17579;42.690;2.586;2024-03-23T08:57:47;1.85;;;1.10;;
30872;SDS011;17579;42.690;2.586;2024-03-23T09:00:12;1.30;;;1.17;;
30872;SDS011;17579;42.690;2.586;2024-03-23T09:02:42;1.85;;;1.30;;
30872;SDS011;17579;42.690;2.586;2024-03-23T09:05:16;4.57;;;1.23;;
30872;SDS011;17579;42.690;2.586;2024-03-23T09:07:42;1.40;;;1.13;;
30872;SDS011;17579;42.690;2.586;2024-03-23T09:10:13;1.67;;;1.20;;
30872;SDS011;17579;42.690;2.586;2024-03-23T09:12:38;1.55;;;1.08;;
30872;SDS011;17579;42.690;2.586;2024-03-23T09:15:09;1.23;;;1.10;;
30872;SDS011;17579;42.690;2.586;2024-03-23T09:17:35;2.00;;;1.27;;
30872;SDS011;17579;42.690;2.586;2024-03-23T09:20:06;1.00;;;0.90;;
30872;SDS011;17579;42.690;2.586;2024-03-23T09:22:33;1.63;;;0.80;;
30872;SDS011;17579;42.690;2.586;2024-03-23T09:25:09;1.90;;;1.00;;
30872;SDS011;17579;42.690;2.586;2024-03-23T09:27:37;1.52;;;0.98;;
30872;SDS011;17579;42.690;2.586;2024-03-23T09:30:05;1.75;;;1.17;;
30872;SDS011;17579;42.690;2.586;2024-03-23T09:32:42;1.40;;;0.90;;
30872;SDS011;17579;42.690;2.586;2024-03-23T09:35:20;1.17;;;0.80;;
30872;SDS011;17579;42.690;2.586;2024-03-23T09:37:46;0.75;;;0.75;;
30872;SDS011;17579;42.690;2.586;2024-03-23T09:40:11;0.98;;;0.93;;
30872;SDS011;17579;42.690;2.586;2024-03-23T09:42:37;3.20;;;1.00;;
30872;SDS011;17579;42.690;2.586;2024-03-23T09:45:20;1.52;;;0.77;;
30872;SDS011;17579;42.690;2.586;2024-03-23T09:47:53;0.95;;;0.85;;
30872;SDS011;17579;42.690;2.586;2024-03-23T09:50:29;1.58;;;0.90;;
30872;SDS011;17579;42.690;2.586;2024-03-23T09:53:07;0.80;;;0.80;;
30872;SDS011;17579;42.690;2.586;2024-03-23T09:55:46;1.10;;;0.80;;
30872;SDS011;17579;42.690;2.586;2024-03-23T09:58:14;1.30;;;0.60;;
30872;SDS011;17579;42.690;2.586;2024-03-23T10:00:45;2.42;;;0.80;;
30872;SDS011;17579;42.690;2.586;2024-03-23T10:03:16;1.13;;;1.02;;
30872;SDS011;17579;42.690;2.586;2024-03-23T10:05:59;2.20;;;1.13;;
30872;SDS011;17579;42.690;2.586;2024-03-23T10:08:31;0.98;;;0.93;;
30872;SDS011;17579;42.690;2.586;2024-03-23T10:10:58;1.23;;;0.80;;
30872;SDS011;17579;42.690;2.586;2024-03-23T10:13:41;2.70;;;1.08;;
30872;SDS011;17579;42.690;2.586;2024-03-23T10:16:29;2.35;;;0.90;;
30872;SDS011;17579;42.690;2.586;2024-03-23T10:19:12;1.63;;;1.00;;
30872;SDS011;17579;42.690;2.586;2024-03-23T10:21:42;1.98;;;1.17;;
30872;SDS011;17579;42.690;2.586;2024-03-23T10:24:20;1.30;;;1.00;;
30872;SDS011;17579;42.690;2.586;2024-03-23T10:26:48;2.58;;;1.33;;
30872;SDS011;17579;42.690;2.586;2024-03-23T10:29:28;3.10;;;0.95;;
30872;SDS011;17579;42.690;2.586;2024-03-23T10:32:13;1.17;;;0.70;;
30872;SDS011;17579;42.690;2.586;2024-03-23T10:34:40;4.30;;;0.93;;
30872;SDS011;17579;42.690;2.586;2024-03-23T10:37:06;2.13;;;1.15;;
30872;SDS011;17579;42.690;2.586;2024-03-23T10:39:39;3.13;;;1.10;;
30872;SDS011;17579;42.690;2.586;2024-03-23T10:42:17;4.50;;;1.40;;
30872;SDS011;17579;42.690;2.586;2024-03-23T10:44:45;2.03;;;1.00;;
30872;SDS011;17579;42.690;2.586;2024-03-23T10:47:10;1.40;;;0.90;;
30872;SDS011;17579;42.690;2.586;2024-03-23T10:49:44;0.95;;;0.90;;
30872;SDS011;17579;42.690;2.586;2024-03-23T10:52:22;1.90;;;1.33;;
30872;SDS011;17579;42.690;2.586;2024-03-23T10:54:47;1.95;;;1.48;;
30872;SDS011;17579;42.690;2.586;2024-03-23T10:57:20;1.38;;;1.10;;
30872;SDS011;17579;42.690;2.586;2024-03-23T10:59:53;1.35;;;1.15;;
30872;SDS011;17579;42.690;2.586;2024-03-23T11:02:25;1.23;;;1.13;;
30872;SDS011;17579;42.690;2.586;2024-03-23T11:04:52;1.85;;;0.88;;
30872;SDS011;17579;42.690;2.586;2024-03-23T11:09:48;1.63;;;1.08;;
30872;SDS011;17579;42.690;2.586;2024-03-23T11:15:10;0.77;;;0.77;;
30872;SDS011;17579;42.690;2.586;2024-03-23T11:17:47;0.60;;;0.60;;
30872;SDS011;17579;42.690;2.586;2024-03-23T11:20:33;0.80;;;0.70;;
30872;SDS011;17579;42.690;2.586;2024-03-23T11:23:02;0.63;;;0.63;;
30872;SDS011;17579;42.690;2.586;2024-03-23T11:25:50;1.48;;;0.63;;
30872;SDS011;17579;42.690;2.586;2024-03-23T11:28:16;0.60;;;0.50;;
30872;SDS011;17579;42.690;2.586;2024-03-23T11:30:50;0.73;;;0.47;;
30872;SDS011;17579;42.690;2.586;2024-03-23T11:33:16;0.68;;;0.60;;
30872;SDS011;17579;42.690;2.586;2024-03-23T11:35:50;0.63;;;0.60;;
30872;SDS011;17579;42.690;2.586;2024-03-23T11:38:17;0.73;;;0.60;;
30872;SDS011;17579;42.690;2.586;2024-03-23T11:40:51;1.45;;;0.73;;
30872;SDS011;17579;42.690;2.586;2024-03-23T11:43:20;1.42;;;0.63;;
30872;SDS011;17579;42.690;2.586;2024-03-23T11:46:00;1.95;;;0.60;;
30872;SDS011;17579;42.690;2.586;2024-03-23T11:48:31;0.82;;;0.60;;
30872;SDS011;17579;42.690;2.586;2024-03-23T11:51:17;0.68;;;0.60;;
30872;SDS011;17579;42.690;2.586;2024-03-23T11:53:45;0.60;;;0.60;;
30872;SDS011;17579;42.690;2.586;2024-03-23T11:56:10;0.63;;;0.63;;
30872;SDS011;17579;42.690;2.586;2024-03-23T11:58:49;0.60;;;0.60;;
30872;SDS011;17579;42.690;2.586;2024-03-23T12:01:18;0.57;;;0.57;;
30872;SDS011;17579;42.690;2.586;2024-03-23T12:03:53;0.55;;;0.55;;
30872;SDS011;17579;42.690;2.586;2024-03-23T12:06:20;0.85;;;0.50;;
30872;SDS011;17579;42.690;2.586;2024-03-23T12:09:05;0.85;;;0.40;;
30872;SDS011;17579;42.690;2.586;2024-03-23T12:11:31;0.50;;;0.50;;
30872;SDS011;17579;42.690;2.586;2024-03-23T12:13:56;0.40;;;0.40;;
30872;SDS011;17579;42.690;2.586;2024-03-23T12:16:27;0.50;;;0.50;;
30872;SDS011;17579;42.690;2.586;2024-03-23T12:19:04;0.60;;;0.60;;
30872;SDS011;17579;42.690;2.586;2024-03-23T12:21:50;0.60;;;0.60;;
30872;SDS011;17579;42.690;2.586;2024-03-23T12:24:20;0.50;;;0.50;;
30872;SDS011;17579;42.690;2.586;2024-03-23T12:27:09;0.35;;;0.35;;
30872;SDS011;17579;42.690;2.586;2024-03-23T12:29:42;0.47;;;0.47;;
30872;SDS011;17579;42.690;2.586;2024-03-23T12:35:20;0.50;;;0.30;;
30872;SDS011;17579;42.690;2.586;2024-03-23T12:37:46;0.47;;;0.40;;
30872;SDS011;17579;42.690;2.586;2024-03-23T12:40:17;0.38;;;0.38;;
30872;SDS011;17579;42.690;2.586;2024-03-23T12:42:42;0.40;;;0.40;;
30872;SDS011;17579;42.690;2.586;2024-03-23T12:45:17;0.38;;;0.38;;
30872;SDS011;17579;42.690;2.586;2024-03-23T12:47:52;0.63;;;0.50;;
30872;SDS011;17579;42.690;2.586;2024-03-23T12:50:23;0.30;;;0.30;;
30872;SDS011;17579;42.690;2.586;2024-03-23T12:52:55;0.30;;;0.30;;
30872;SDS011;17579;42.690;2.586;2024-03-23T12:55:32;1.05;;;0.30;;
30872;SDS011;17579;42.690;2.586;2024-03-23T12:58:00;0.30;;;0.30;;
30872;SDS011;17579;42.690;2.586;2024-03-23T13:00:37;0.30;;;0.30;;
30872;SDS011;17579;42.690;2.586;2024-03-23T13:03:13;0.30;;;0.30;;
30872;SDS011;17579;42.690;2.586;2024-03-23T13:05:51;1.55;;;0.40;;
30872;SDS011;17579;42.690;2.586;2024-03-23T13:08:23;0.35;;;0.30;;
30872;SDS011;17579;42.690;2.586;2024-03-23T13:10:51;0.32;;;0.32;;
30872;SDS011;17579;42.690;2.586;2024-03-23T13:13:26;0.45;;;0.45;;
30872;SDS011;17579;42.690;2.586;2024-03-23T13:15:59;0.30;;;0.30;;
30872;SDS011;17579;42.690;2.586;2024-03-23T13:18:33;0.30;;;0.30;;
30872;SDS011;17579;42.690;2.586;2024-03-23T13:21:10;0.30;;;0.30;;
30872;SDS011;17579;42.690;2.586;2024-03-23T13:23:36;0.47;;;0.47;;
30872;SDS011;17579;42.690;2.586;2024-03-23T13:26:17;0.43;;;0.43;;
30872;SDS011;17579;42.690;2.586;2024-03-23T13:28:45;0.40;;;0.40;;
30872;SDS011;17579;42.690;2.586;2024-03-23T13:31:34;0.68;;;0.40;;
30872;SDS011;17579;42.690;2.586;2024-03-23T13:34:04;0.50;;;0.50;;
30872;SDS011;17579;42.690;2.586;2024-03-23T13:36:46;0.40;;;0.40;;
30872;SDS011;17579;42.690;2.586;2024-03-23T13:39:32;0.47;;;0.40;;
30872;SDS011;17579;42.690;2.586;2024-03-23T13:44:50;0.75;;;0.60;;
30872;SDS011;17579;42.690;2.586;2024-03-23T13:47:16;0.50;;;0.50;;
30872;SDS011;17579;42.690;2.586;2024-03-23T13:49:53;0.73;;;0.50;;
30872;SDS011;17579;42.690;2.586;2024-03-23T13:52:21;1.33;;;0.40;;
30872;SDS011;17579;42.690;2.586;2024-03-23T13:54:54;0.50;;;0.50;;
30872;SDS011;17579;42.690;2.586;2024-03-23T13:57:24;1.27;;;0.70;;
30872;SDS011;17579;42.690;2.586;2024-03-23T13:59:51;0.75;;;0.50;;
30872;SDS011;17579;42.690;2.586;2024-03-23T14:02:24;0.60;;;0.60;;
30872;SDS011;17579;42.690;2.586;2024-03-23T14:04:53;1.15;;;0.68;;
30872;SDS011;17579;42.690;2.586;2024-03-23T14:07:18;0.70;;;0.60;;
30872;SDS011;17579;42.690;2.586;2024-03-23T14:09:46;0.88;;;0.68;;
30872;SDS011;17579;42.690;2.586;2024-03-23T14:12:37;0.95;;;0.50;;
30872;SDS011;17579;42.690;2.586;2024-03-23T14:15:12;0.73;;;0.47;;
30872;SDS011;17579;42.690;2.586;2024-03-23T14:17:40;0.60;;;0.60;;
30872;SDS011;17579;42.690;2.586;2024-03-23T14:20:10;1.15;;;0.60;;
30872;SDS011;17579;42.690;2.586;2024-03-23T14:22:48;0.80;;;0.80;;
30872;SDS011;17579;42.690;2.586;2024-03-23T14:25:26;0.82;;;0.63;;
30872;SDS011;17579;42.690;2.586;2024-03-23T14:27:55;0.50;;;0.50;;
30872;SDS011;17579;42.690;2.586;2024-03-23T14:30:28;1.65;;;0.70;;
30872;SDS011;17579;42.690;2.586;2024-03-23T14:33:04;1.48;;;0.50;;
30872;SDS011;17579;42.690;2.586;2024-03-23T14:35:43;0.50;;;0.50;;
30872;SDS011;17579;42.690;2.586;2024-03-23T14:38:27;0.50;;;0.50;;
30872;SDS011;17579;42.690;2.586;2024-03-23T14:41:00;2.00;;;0.70;;
30872;SDS011;17579;42.690;2.586;2024-03-23T14:43:37;0.50;;;0.50;;
30872;SDS011;17579;42.690;2.586;2024-03-23T14:49:00;1.35;;;0.60;;
30872;SDS011;17579;42.690;2.586;2024-03-23T14:51:29;1.02;;;0.93;;
30872;SDS011;17579;42.690;2.586;2024-03-23T14:53:57;0.52;;;0.52;;
30872;SDS011;17579;42.690;2.586;2024-03-23T14:56:32;0.88;;;0.50;;
30872;SDS011;17579;42.690;2.586;2024-03-23T14:59:02;0.73;;;0.73;;
30872;SDS011;17579;42.690;2.586;2024-03-23T15:01:31;0.65;;;0.50;;
30872;SDS011;17579;42.690;2.586;2024-03-23T15:04:14;0.85;;;0.65;;
30872;SDS011;17579;42.690;2.586;2024-03-23T15:06:41;0.63;;;0.57;;
30872;SDS011;17579;42.690;2.586;2024-03-23T15:09:27;0.50;;;0.50;;
30872;SDS011;17579;42.690;2.586;2024-03-23T15:11:52;0.70;;;0.52;;
30872;SDS011;17579;42.690;2.586;2024-03-23T15:14:20;0.70;;;0.55;;
30872;SDS011;17579;42.690;2.586;2024-03-23T15:17:00;1.00;;;0.70;;
30872;SDS011;17579;42.690;2.586;2024-03-23T15:19:42;0.82;;;0.63;;
30872;SDS011;17579;42.690;2.586;2024-03-23T15:22:22;1.65;;;0.80;;
30872;SDS011;17579;42.690;2.586;2024-03-23T15:25:11;0.57;;;0.50;;
30872;SDS011;17579;42.690;2.586;2024-03-23T15:27:37;0.57;;;0.57;;
30872;SDS011;17579;42.690;2.586;2024-03-23T15:30:09;2.10;;;0.80;;
30872;SDS011;17579;42.690;2.586;2024-03-23T15:32:41;0.98;;;0.70;;
30872;SDS011;17579;42.690;2.586;2024-03-23T15:35:07;1.92;;;0.50;;
30872;SDS011;17579;42.690;2.586;2024-03-23T15:37:47;1.35;;;0.68;;
30872;SDS011;17579;42.690;2.586;2024-03-23T15:40:13;0.60;;;0.60;;
30872;SDS011;17579;42.690;2.586;2024-03-23T15:43:15;1.58;;;0.70;;
30872;SDS011;17579;42.690;2.586;2024-03-23T15:45:47;0.60;;;0.60;;
30872;SDS011;17579;42.690;2.586;2024-03-23T15:48:21;2.25;;;0.68;;
30872;SDS011;17579;42.690;2.586;2024-03-23T15:50:59;0.63;;;0.63;;
30872;SDS011;17579;42.690;2.586;2024-03-23T15:53:34;0.73;;;0.70;;
30872;SDS011;17579;42.690;2.586;2024-03-23T15:56:17;1.02;;;0.57;;
30872;SDS011;17579;42.690;2.586;2024-03-23T15:58:53;1.02;;;0.60;;
30872;SDS011;17579;42.690;2.586;2024-03-23T16:01:43;0.98;;;0.73;;
30872;SDS011;17579;42.690;2.586;2024-03-23T16:04:13;2.63;;;0.90;;
30872;SDS011;17579;42.690;2.586;2024-03-23T16:06:59;0.98;;;0.60;;
30872;SDS011;17579;42.690;2.586;2024-03-23T16:09:28;0.88;;;0.80;;
30872;SDS011;17579;42.690;2.586;2024-03-23T16:11:55;0.80;;;0.80;;
30872;SDS011;17579;42.690;2.586;2024-03-23T16:14:30;1.70;;;1.15;;
30872;SDS011;17579;42.690;2.586;2024-03-23T16:16:58;1.83;;;0.93;;
30872;SDS011;17579;42.690;2.586;2024-03-23T16:19:43;1.17;;;0.82;;
30872;SDS011;17579;42.690;2.586;2024-03-23T16:22:11;1.55;;;0.90;;
30872;SDS011;17579;42.690;2.586;2024-03-23T16:24:39;2.08;;;1.10;;
30872;SDS011;17579;42.690;2.586;2024-03-23T16:27:07;1.42;;;0.82;;